Terminal Aerodrome Forecast
Issued by NWS

Home | Current Version | Previous Version | Text Only | Print | Product List | Glossary On
Versions: 1 2 3 4 5 6 7 8 9 10 11 12 13 14 15 16 17 18
365
FTUS43 KMQT 261140
TAFCMX
TAF
KCMX 261140Z 2612/2712 23007KT 1 1/2SM -SHSN OVC015
     FM261600 30009KT 1SM -SHSN OVC015
     FM262000 30013G20KT 1 1/2SM -SHSN BLSN BKN015
     FM262200 30014G23KT 3SM -SHSN BLSN BKN020
     FM262300 30014G24KT 5SM BLSN BKN025
     FM270000 30014G24KT P6SM BKN030
     FM270500 30009KT P6SM BKN080=

USA.gov is the U.S. government's official web portal to all federal, state and local government web resources and services.